Time;durP1;ratioP1;P1;durP2;ratioP2;P2;SDS_P1;SDS_P2;PMS_P1;PMS_P2;Temp;Humidity;BMP_temperature;BMP_pressure;BME280_temperature;BME280_humidity;BME280_pressure;Samples;Min_cycle;Max_cycle;Signal;HPM_P1;HPM_P2
2022/01/05 00:00:16;;;;;;;6.07;1.57;;;;;;;13.49;35.89;100183.03;5132532;27;20034;-68
2022/01/05 00:02:41;;;;;;;7.83;1.43;;;;;;;12.85;36.39;100186.72;5109918;27;20061;-68
2022/01/05 00:05:08;;;;;;;5.77;1.73;;;;;;;12.79;37.49;100189.50;5096989;28;20115;-68
2022/01/05 00:07:33;;;;;;;5.93;1.37;;;;;;;13.79;35.12;100177.66;5094207;28;20122;-68
2022/01/05 00:09:59;;;;;;;12.57;1.47;;;;;;;14.11;35.19;100175.69;5113023;27;20165;-68
2022/01/05 00:12:25;;;;;;;11.17;1.70;;;;;;;14.07;34.79;100173.19;5126395;27;20071;-68
2022/01/05 00:14:50;;;;;;;6.67;1.20;;;;;;;13.73;35.83;100171.72;5113478;27;20102;-68
2022/01/05 00:17:16;;;;;;;11.77;1.43;;;;;;;13.48;36.52;100181.31;5114250;27;20037;-68
2022/01/05 00:19:41;;;;;;;12.17;2.10;;;;;;;13.57;36.21;100181.00;5110091;28;20055;-68
2022/01/05 00:22:07;;;;;;;11.70;1.90;;;;;;;13.09;36.84;100194.75;5108763;28;20031;-68
2022/01/05 00:24:32;;;;;;;5.67;1.13;;;;;;;12.76;37.74;100197.47;5109784;28;20030;-68
2022/01/05 00:26:58;;;;;;;3.60;1.07;;;;;;;12.48;37.77;100193.03;5111308;28;20023;-68
2022/01/05 00:29:23;;;;;;;4.93;1.20;;;;;;;13.61;35.95;100189.66;5109896;28;20161;-68
2022/01/05 00:31:49;;;;;;;7.77;1.50;;;;;;;12.86;37.18;100194.53;5110906;28;20494;-68
2022/01/05 00:34:15;;;;;;;7.60;1.10;;;;;;;13.61;35.74;100187.88;5106106;28;20119;-68
2022/01/05 00:36:40;;;;;;;7.13;1.37;;;;;;;13.99;35.58;100185.72;5110311;28;20036;-68
2022/01/05 00:39:05;;;;;;;12.73;1.93;;;;;;;13.73;35.96;100192.72;5109295;28;20016;-68
2022/01/05 00:41:31;;;;;;;5.40;0.97;;;;;;;12.92;37.30;100193.50;5111699;28;20046;-68
2022/01/05 00:43:56;;;;;;;6.37;1.13;;;;;;;14.16;34.49;100179.88;5105340;28;20030;-68
2022/01/05 00:46:22;;;;;;;8.73;1.37;;;;;;;12.29;37.10;100201.38;5111152;28;20078;-68
2022/01/05 00:48:47;;;;;;;7.03;1.07;;;;;;;13.10;35.49;100193.84;5109041;28;20047;-68
2022/01/05 00:51:15;;;;;;;4.97;1.13;;;;;;;13.05;35.59;100194.84;5110225;28;20074;-68
2022/01/05 00:53:41;;;;;;;5.30;1.57;;;;;;;12.42;36.59;100187.94;5109582;28;20030;-68
2022/01/05 00:56:06;;;;;;;8.40;1.20;;;;;;;13.15;35.77;100199.81;5111100;28;20031;-68
2022/01/05 00:58:32;;;;;;;10.90;1.17;;;;;;;12.69;35.78;100202.91;5110446;28;20023;-68
2022/01/05 01:00:58;;;;;;;10.17;1.40;;;;;;;14.10;34.09;100190.63;5110856;28;20011;-68
2022/01/05 01:03:27;;;;;;;8.33;0.97;;;;;;;12.48;35.91;100206.97;5104089;28;20043;-68
2022/01/05 01:05:52;;;;;;;11.03;1.20;;;;;;;12.67;35.77;100203.84;5111244;28;20032;-68
2022/01/05 01:08:18;;;;;;;8.23;0.97;;;;;;;12.64;35.89;100199.56;5109236;28;20036;-68
2022/01/05 01:10:43;;;;;;;8.43;1.23;;;;;;;12.98;35.53;100203.81;5111306;28;20035;-68
2022/01/05 01:13:08;;;;;;;4.17;1.00;;;;;;;13.17;34.94;100204.09;5108041;28;20047;-68
2022/01/05 01:15:34;;;;;;;7.30;0.90;;;;;;;12.30;36.46;100210.13;5093631;28;20115;-68
2022/01/05 01:17:59;;;;;;;6.83;1.00;;;;;;;13.43;34.83;100204.22;5089925;28;20032;-68
2022/01/05 01:20:24;;;;;;;6.07;1.70;;;;;;;12.83;35.86;100210.38;5121812;28;20490;-68
2022/01/05 01:22:50;;;;;;;3.40;1.27;;;;;;;12.89;35.54;100210.19;5122213;28;20035;-68
2022/01/05 01:25:16;;;;;;;6.93;1.47;;;;;;;12.91;34.93;100212.75;5111720;28;20027;-68
2022/01/05 01:27:43;;;;;;;4.40;1.00;;;;;;;13.43;34.25;100209.47;5113265;28;20027;-68
2022/01/05 01:30:10;;;;;;;8.97;1.23;;;;;;;12.38;35.69;100219.47;5111900;28;20070;-68
2022/01/05 01:32:35;;;;;;;7.67;1.03;;;;;;;12.58;35.64;100217.22;5112426;28;20083;-69
2022/01/05 01:35:05;;;;;;;10.70;1.23;;;;;;;12.96;35.16;100216.09;5111427;28;20031;-69
2022/01/05 01:37:30;;;;;;;5.13;1.10;;;;;;;13.36;33.80;100214.06;5131638;28;20037;-68
2022/01/05 01:39:56;;;;;;;8.87;1.73;;;;;;;12.45;35.15;100212.31;5112516;28;20015;-68
2022/01/05 01:42:21;;;;;;;5.30;1.30;;;;;;;12.80;35.28;100214.84;5113003;27;20528;-68
2022/01/05 01:44:47;;;;;;;7.13;1.00;;;;;;;13.63;33.20;100196.56;5116724;27;20023;-68
2022/01/05 01:47:13;;;;;;;3.70;0.97;;;;;;;12.14;35.48;100207.03;5117262;27;20063;-68
2022/01/05 01:49:38;;;;;;;6.13;1.53;;;;;;;12.80;34.70;100206.97;5104824;28;20044;-68
2022/01/05 01:52:04;;;;;;;10.83;1.40;;;;;;;12.63;35.40;100210.94;5114613;28;20114;-69
2022/01/05 01:54:30;;;;;;;6.70;1.23;;;;;;;13.01;34.06;100208.09;5131212;27;20039;-68
2022/01/05 01:56:57;;;;;;;2.63;0.80;;;;;;;13.35;34.07;100207.97;5116388;27;20030;-68
2022/01/05 01:59:23;;;;;;;5.30;1.20;;;;;;;14.04;33.09;100212.72;5116619;27;20051;-68
2022/01/05 02:01:48;;;;;;;4.50;1.00;;;;;;;12.83;34.66;100215.63;5116619;27;20039;-69
2022/01/05 02:04:13;;;;;;;6.43;1.67;;;;;;;12.62;35.25;100222.31;5111713;27;20059;-68
2022/01/05 02:06:39;;;;;;;11.13;2.37;;;;;;;13.40;34.64;100208.66;5135265;27;20034;-68
2022/01/05 02:09:05;;;;;;;7.37;2.43;;;;;;;12.17;36.25;100225.28;5115540;27;20035;-69
2022/01/05 02:11:32;;;;;;;8.00;1.70;;;;;;;12.54;35.75;100232.16;5116222;27;20481;-69
2022/01/05 02:13:57;;;;;;;5.30;1.30;;;;;;;13.06;35.29;100225.44;5129582;27;20390;-69
2022/01/05 02:16:30;;;;;;;5.83;1.17;;;;;;;12.04;36.71;100220.38;5096573;28;20052;-68
2022/01/05 02:18:58;;;;;;;9.60;1.13;;;;;;;12.97;35.38;100223.06;5097048;27;20024;-69
2022/01/05 02:21:28;;;;;;;6.20;1.63;;;;;;;11.19;38.65;100234.59;5116237;27;20485;-69
2022/01/05 02:23:54;;;;;;;4.83;1.00;;;;;;;12.21;36.96;100227.81;5107181;28;20068;-68
2022/01/05 02:26:20;;;;;;;8.83;1.53;;;;;;;12.66;36.11;100229.19;5110408;27;20023;-68
2022/01/05 02:28:45;;;;;;;15.23;2.17;;;;;;;11.63;38.41;100219.59;5115994;27;20102;-68
2022/01/05 02:31:11;;;;;;;10.77;1.10;;;;;;;12.70;36.09;100225.59;5134380;27;20023;-68
2022/01/05 02:33:39;;;;;;;8.60;1.70;;;;;;;12.09;37.65;100222.00;5129115;27;20027;-68
2022/01/05 02:36:05;;;;;;;10.43;1.23;;;;;;;13.07;35.77;100229.75;5115279;27;20037;-68
2022/01/05 02:38:31;;;;;;;7.37;1.60;;;;;;;13.31;35.44;100227.31;5115082;27;20377;-68
2022/01/05 02:40:56;;;;;;;7.30;2.20;;;;;;;12.50;36.62;100235.75;5134494;27;20035;-68
2022/01/05 02:43:22;;;;;;;5.53;1.40;;;;;;;12.41;37.46;100230.78;5126373;27;20037;-69
2022/01/05 02:45:47;;;;;;;15.50;2.07;;;;;;;12.59;37.19;100227.66;5095099;28;20030;-69
2022/01/05 02:48:13;;;;;;;11.03;1.30;;;;;;;12.88;37.00;100228.59;5100877;27;20057;-68
2022/01/05 02:50:38;;;;;;;10.37;2.20;;;;;;;13.20;36.62;100229.38;5134191;27;20050;-68
2022/01/05 02:53:04;;;;;;;8.53;1.80;;;;;;;12.42;37.48;100216.78;5127618;27;20106;-68
2022/01/05 02:55:29;;;;;;;10.33;1.40;;;;;;;12.47;37.90;100236.69;5115661;27;20027;-69
2022/01/05 02:57:55;;;;;;;8.43;1.73;;;;;;;13.27;36.24;100230.06;5133203;27;20030;-69
2022/01/05 03:00:20;;;;;;;6.90;1.90;;;;;;;13.61;35.45;100237.75;5114679;27;20098;-68
2022/01/05 03:02:45;;;;;;;11.17;1.63;;;;;;;12.72;36.54;100238.66;5114779;27;20161;-69
2022/01/05 03:05:11;;;;;;;11.10;1.90;;;;;;;12.71;36.63;100244.81;5133150;27;20502;-69
2022/01/05 03:07:40;;;;;;;8.30;1.90;;;;;;;12.96;36.88;100246.72;5133335;27;20394;-68
2022/01/05 03:10:10;;;;;;;9.47;1.90;;;;;;;12.94;36.72;100249.41;5133614;27;20027;-69
2022/01/05 03:12:41;;;;;;;11.33;1.70;;;;;;;12.65;37.35;100247.59;5114458;27;20534;-69
2022/01/05 03:15:08;;;;;;;8.17;1.70;;;;;;;11.66;39.16;100256.22;5131850;27;20068;-68
2022/01/05 03:17:33;;;;;;;7.00;1.20;;;;;;;11.65;39.42;100253.59;5113078;27;20046;-69
2022/01/05 03:19:58;;;;;;;12.60;1.67;;;;;;;12.23;37.88;100251.34;5114670;27;20053;-69
2022/01/05 03:22:24;;;;;;;4.83;1.50;;;;;;;12.63;38.03;100260.75;5114414;27;20019;-69
2022/01/05 03:24:49;;;;;;;9.37;1.13;;;;;;;12.83;37.53;100251.47;5114536;27;20027;-69
2022/01/05 03:27:15;;;;;;;8.87;1.80;;;;;;;12.51;38.07;100261.94;5132453;27;20312;-68
2022/01/05 03:29:40;;;;;;;11.37;1.63;;;;;;;13.16;36.21;100275.88;5129516;27;20019;-68
2022/01/05 03:32:06;;;;;;;7.80;1.47;;;;;;;12.18;39.45;100276.78;5114231;27;20031;-68
2022/01/05 03:34:32;;;;;;;22.83;2.13;;;;;;;12.90;37.79;100268.75;5120906;27;20507;-69
2022/01/05 03:36:59;;;;;;;8.90;1.60;;;;;;;12.92;37.39;100264.31;5102022;27;20023;-69
2022/01/05 03:39:25;;;;;;;11.00;1.37;;;;;;;12.07;39.03;100268.34;5107605;28;20020;-69
2022/01/05 03:41:51;;;;;;;8.77;1.33;;;;;;;11.86;39.61;100273.19;5101829;27;20020;-69
2022/01/05 03:44:16;;;;;;;12.53;2.17;;;;;;;12.48;38.92;100276.91;5107358;28;20528;-69
2022/01/05 03:46:41;;;;;;;12.63;2.30;;;;;;;12.29;39.25;100276.53;5100965;27;20019;-68
2022/01/05 03:49:07;;;;;;;5.97;1.50;;;;;;;13.37;38.16;100279.63;5096304;28;20030;-69
2022/01/05 03:51:32;;;;;;;9.67;1.60;;;;;;;13.02;38.56;100273.66;5130979;27;20035;-69
2022/01/05 03:53:57;;;;;;;5.37;1.73;;;;;;;13.11;38.17;100276.91;5114561;27;20132;-68
2022/01/05 03:56:23;;;;;;;8.27;1.47;;;;;;;13.98;36.40;100272.50;5113602;27;20549;-69
2022/01/05 03:58:49;;;;;;;8.33;1.33;;;;;;;13.38;37.44;100284.00;5119711;27;20038;-69
2022/01/05 04:01:15;;;;;;;8.43;1.73;;;;;;;12.84;39.02;100276.78;5131953;27;20106;-68
2022/01/05 04:03:40;;;;;;;15.40;2.03;;;;;;;13.27;38.06;100272.94;5113431;27;20101;-69
2022/01/05 04:06:06;;;;;;;7.00;1.93;;;;;;;13.68;37.37;100283.94;5131523;27;20027;-68
2022/01/05 04:08:32;;;;;;;17.07;2.17;;;;;;;13.30;37.60;100287.69;5113797;27;20474;-68
2022/01/05 04:10:57;;;;;;;6.90;1.70;;;;;;;13.44;37.76;100282.09;5132190;27;20035;-69
2022/01/05 04:13:22;;;;;;;8.77;1.43;;;;;;;12.87;38.08;100289.81;5113293;27;20034;-69
2022/01/05 04:15:48;;;;;;;12.67;1.63;;;;;;;13.00;38.51;100285.94;5114250;27;20031;-68
2022/01/05 04:18:13;;;;;;;12.53;1.87;;;;;;;13.70;37.01;100292.63;5122222;27;20024;-68
2022/01/05 04:20:39;;;;;;;9.30;1.90;;;;;;;13.63;37.35;100291.09;5096133;27;20492;-69
2022/01/05 04:23:04;;;;;;;10.77;1.30;;;;;;;12.92;38.54;100302.81;5132075;27;20042;-69
2022/01/05 04:25:30;;;;;;;13.53;1.73;;;;;;;13.56;36.93;100295.69;5112701;27;20030;-69
2022/01/05 04:27:56;;;;;;;8.93;1.40;;;;;;;13.86;36.91;100297.38;5113119;27;20483;-69
2022/01/05 04:30:21;;;;;;;9.47;1.73;;;;;;;13.67;37.08;100297.97;5132281;27;20019;-68
2022/01/05 04:32:46;;;;;;;12.53;2.37;;;;;;;12.97;38.33;100304.41;5130205;27;20023;-68
2022/01/05 04:35:14;;;;;;;10.57;1.63;;;;;;;13.27;37.53;100304.44;5113115;27;20023;-69
2022/01/05 04:37:40;;;;;;;6.47;1.70;;;;;;;13.28;37.14;100295.63;5112718;27;20022;-69
2022/01/05 04:40:07;;;;;;;5.60;1.97;;;;;;;13.03;37.61;100300.75;5113053;27;20100;-69
2022/01/05 04:42:33;;;;;;;11.43;1.63;;;;;;;12.55;38.53;100294.19;5112819;27;20023;-68
2022/01/05 04:44:58;;;;;;;8.63;1.33;;;;;;;12.76;37.34;100292.72;5131396;27;20039;-69
2022/01/05 04:47:23;;;;;;;7.00;1.20;;;;;;;12.90;37.79;100290.59;5112417;27;20023;-69
2022/01/05 04:49:49;;;;;;;9.37;2.23;;;;;;;12.19;39.17;100291.63;5131376;27;20037;-69
2022/01/05 04:52:14;;;;;;;10.80;1.60;;;;;;;13.06;37.40;100291.03;5111776;27;20099;-68
2022/01/05 04:54:40;;;;;;;4.10;1.30;;;;;;;12.70;38.99;100301.63;5131731;27;20051;-68
2022/01/05 04:57:06;;;;;;;9.67;1.43;;;;;;;12.54;38.72;100297.69;5112888;27;20106;-69
2022/01/05 04:59:32;;;;;;;6.60;1.40;;;;;;;13.36;37.67;100304.16;5112940;27;20117;-69
2022/01/05 05:01:58;;;;;;;5.43;1.20;;;;;;;12.78;39.01;100297.97;5131256;27;20452;-69
2022/01/05 05:04:23;;;;;;;11.77;1.50;;;;;;;13.91;37.21;100303.34;5104367;27;20062;-69
2022/01/05 05:06:49;;;;;;;8.73;1.30;;;;;;;13.19;37.98;100311.66;5112518;28;20027;-69
2022/01/05 05:09:15;;;;;;;11.10;1.03;;;;;;;12.37;39.24;100312.09;5113299;27;20102;-68
2022/01/05 05:11:41;;;;;;;9.43;1.60;;;;;;;12.96;38.72;100326.28;5113016;27;20026;-69
2022/01/05 05:14:06;;;;;;;6.47;1.43;;;;;;;12.94;38.45;100309.75;5111540;27;20027;-69
2022/01/05 05:16:31;;;;;;;6.17;1.60;;;;;;;12.97;38.85;100307.03;5131184;27;20083;-68
2022/01/05 05:18:56;;;;;;;7.67;1.27;;;;;;;13.03;38.49;100321.72;5095630;28;20036;-69
2022/01/05 05:21:22;;;;;;;7.70;1.30;;;;;;;12.95;38.99;100319.31;5092524;28;20066;-69
2022/01/05 05:23:47;;;;;;;6.40;1.50;;;;;;;12.15;39.41;100321.41;5129463;28;20027;-69
2022/01/05 05:26:13;;;;;;;4.13;1.23;;;;;;;11.64;41.51;100320.81;5114529;28;20057;-68
2022/01/05 05:28:38;;;;;;;5.70;2.20;;;;;;;11.60;41.52;100334.03;5097310;28;20028;-68
2022/01/05 05:31:03;;;;;;;4.37;1.27;;;;;;;12.68;39.28;100327.03;5092586;28;20016;-68
2022/01/05 05:33:29;;;;;;;9.80;1.47;;;;;;;13.11;38.19;100329.38;5111935;28;20062;-68
2022/01/05 05:35:54;;;;;;;11.00;1.20;;;;;;;13.83;36.76;100321.97;5111802;28;20027;-68
2022/01/05 05:38:20;;;;;;;6.90;2.20;;;;;;;12.25;40.02;100322.91;5112746;28;20135;-68
2022/01/05 05:40:45;;;;;;;10.13;2.13;;;;;;;12.32;40.62;100324.50;5113217;28;20406;-69
2022/01/05 05:43:11;;;;;;;9.40;2.30;;;;;;;11.17;42.66;100335.78;5103444;28;20471;-69
2022/01/05 05:45:37;;;;;;;12.97;2.07;;;;;;;12.60;39.23;100318.53;5119961;28;20098;-68
2022/01/05 05:48:03;;;;;;;5.43;1.30;;;;;;;12.42;40.29;100319.00;5130666;28;20027;-69
2022/01/05 05:50:30;;;;;;;10.93;1.33;;;;;;;11.93;40.62;100319.28;5130688;28;20095;-69
2022/01/05 05:52:55;;;;;;;8.43;1.67;;;;;;;11.99;40.69;100315.69;5127838;28;20034;-69
2022/01/05 05:55:21;;;;;;;5.47;1.10;;;;;;;10.97;42.85;100313.50;5094399;28;20027;-68
2022/01/05 05:57:46;;;;;;;13.50;2.17;;;;;;;12.01;40.88;100316.53;5112664;28;20023;-69
2022/01/05 06:00:12;;;;;;;9.90;2.20;;;;;;;11.81;41.18;100316.94;5130954;28;20015;-68
2022/01/05 06:02:38;;;;;;;6.77;2.03;;;;;;;11.69;41.80;100321.56;5111139;28;20390;-68
2022/01/05 06:05:03;;;;;;;8.63;1.73;;;;;;;12.80;40.06;100317.13;5110387;28;20019;-69
2022/01/05 06:07:29;;;;;;;14.00;1.60;;;;;;;12.53;40.09;100327.47;5112626;28;20083;-68
2022/01/05 06:09:54;;;;;;;17.73;2.63;;;;;;;13.00;39.26;100317.41;5129418;28;20027;-68
2022/01/05 06:12:19;;;;;;;4.90;1.23;;;;;;;11.70;41.60;100331.16;5112548;28;20027;-68
2022/01/05 06:14:45;;;;;;;7.87;1.13;;;;;;;12.04;40.98;100337.41;5111896;28;20080;-68
2022/01/05 06:17:10;;;;;;;13.30;2.13;;;;;;;11.98;41.38;100330.56;5111634;28;20031;-69
2022/01/05 06:19:36;;;;;;;4.97;0.90;;;;;;;12.48;40.25;100329.31;5112622;28;20096;-68
2022/01/05 06:22:01;;;;;;;4.50;1.50;;;;;;;12.88;39.46;100320.38;5112802;28;20381;-68
2022/01/05 06:24:27;;;;;;;8.00;2.90;;;;;;;12.02;40.96;100332.19;5109732;28;20031;-68
2022/01/05 06:26:52;;;;;;;6.83;1.50;;;;;;;13.03;39.48;100333.06;5092091;28;20069;-68
2022/01/05 06:29:19;;;;;;;13.73;1.83;;;;;;;12.70;40.14;100340.97;5129784;27;20046;-68
2022/01/05 06:31:44;;;;;;;9.20;2.00;;;;;;;12.79;40.00;100344.22;5115754;27;20030;-69
2022/01/05 06:34:10;;;;;;;5.83;1.33;;;;;;;13.27;39.36;100356.91;5115483;27;20019;-68
2022/01/05 06:36:35;;;;;;;10.70;1.47;;;;;;;12.12;41.81;100353.78;5135052;27;20023;-68
2022/01/05 06:39:02;;;;;;;15.33;2.77;;;;;;;12.60;40.81;100352.59;5113936;27;20031;-68
2022/01/05 06:41:27;;;;;;;14.77;2.67;;;;;;;13.05;41.07;100347.03;5115568;27;20035;-68
2022/01/05 06:43:52;;;;;;;3.30;1.07;;;;;;;12.83;41.41;100353.75;5109630;28;20035;-69
2022/01/05 06:46:18;;;;;;;17.80;2.50;;;;;;;13.42;40.12;100353.00;5113378;28;20539;-68
2022/01/05 06:48:43;;;;;;;5.27;1.50;;;;;;;12.83;40.87;100357.25;5129987;27;20467;-68
2022/01/05 06:51:09;;;;;;;8.83;1.70;;;;;;;12.47;41.81;100365.16;5111028;28;20027;-68
2022/01/05 06:53:34;;;;;;;12.93;1.80;;;;;;;13.18;40.32;100357.16;5098023;28;20383;-69
2022/01/05 06:55:59;;;;;;;18.43;2.53;;;;;;;12.87;41.36;100363.25;5113914;28;20425;-69
2022/01/05 06:58:25;;;;;;;14.03;1.73;;;;;;;13.37;40.46;100370.66;5125955;27;20473;-68
2022/01/05 07:00:50;;;;;;;7.80;1.83;;;;;;;13.65;40.01;100361.97;5133176;27;20364;-68
2022/01/05 07:03:16;;;;;;;10.00;1.50;;;;;;;12.57;41.63;100365.81;5108617;28;20053;-69
2022/01/05 07:05:41;;;;;;;10.60;2.40;;;;;;;13.65;39.56;100372.47;5094801;28;20032;-68
2022/01/05 07:08:07;;;;;;;13.47;2.40;;;;;;;13.38;39.92;100369.72;5095659;28;20103;-68
2022/01/05 07:10:32;;;;;;;17.50;4.60;;;;;;;12.44;42.39;100372.25;5113420;28;20479;-69
2022/01/05 07:12:58;;;;;;;5.90;2.33;;;;;;;12.77;41.26;100377.53;5110634;28;20027;-69
2022/01/05 07:15:25;;;;;;;12.60;2.20;;;;;;;13.17;41.03;100376.44;5094900;28;20395;-68
2022/01/05 07:17:50;;;;;;;8.87;1.87;;;;;;;12.61;41.84;100372.69;5100087;27;20027;-68
2022/01/05 07:20:16;;;;;;;14.53;2.60;;;;;;;13.00;41.47;100383.00;5114316;27;20042;-69
2022/01/05 07:22:43;;;;;;;7.57;1.40;;;;;;;13.44;39.99;100394.97;5132031;27;20043;-69
2022/01/05 07:25:09;;;;;;;7.40;1.23;;;;;;;11.89;43.62;100404.91;5114888;27;20039;-68
2022/01/05 07:27:36;;;;;;;7.97;2.00;;;;;;;12.43;42.99;100409.84;5114448;27;20034;-68
2022/01/05 07:30:03;;;;;;;17.60;2.17;;;;;;;12.87;41.50;100399.97;5133538;27;20124;-68
2022/01/05 07:32:29;;;;;;;13.80;2.50;;;;;;;13.50;40.92;100405.28;5114462;27;20031;-68
2022/01/05 07:34:55;;;;;;;12.17;1.77;;;;;;;12.97;41.97;100406.72;5132794;27;20360;-68
2022/01/05 07:37:20;;;;;;;9.30;2.20;;;;;;;13.01;41.94;100408.34;5112264;27;20417;-68
2022/01/05 07:39:45;;;;;;;9.73;2.27;;;;;;;13.06;41.75;100416.97;5114561;27;20027;-68
2022/01/05 07:42:11;;;;;;;8.83;2.13;;;;;;;12.30;42.92;100415.38;5113897;27;20052;-68
2022/01/05 07:44:36;;;;;;;11.43;1.80;;;;;;;12.44;43.35;100408.94;5133389;27;20054;-68
2022/01/05 07:47:02;;;;;;;16.87;2.97;;;;;;;13.28;41.67;100420.75;5114411;27;20034;-68
2022/01/05 07:49:28;;;;;;;6.83;1.73;;;;;;;12.97;42.33;100422.44;5095564;28;20035;-68
2022/01/05 07:51:53;;;;;;;12.37;1.93;;;;;;;13.06;41.88;100426.56;5112887;27;20023;-67
2022/01/05 07:54:18;;;;;;;15.30;2.90;;;;;;;13.26;42.08;100423.44;5114187;27;20039;-68
2022/01/05 07:56:44;;;;;;;14.87;1.77;;;;;;;14.13;40.00;100420.94;5114436;27;20106;-68
2022/01/05 07:59:09;;;;;;;8.30;1.73;;;;;;;14.02;39.87;100430.00;5100620;28;20043;-68
2022/01/05 08:01:35;;;;;;;7.80;1.90;;;;;;;12.52;43.22;100441.06;5108998;27;20019;-69
2022/01/05 08:04:00;;;;;;;7.83;2.00;;;;;;;12.95;43.10;100439.97;5130812;27;20072;-68
2022/01/05 08:06:25;;;;;;;14.97;1.80;;;;;;;13.40;42.62;100446.69;5122862;27;20028;-68
2022/01/05 08:08:51;;;;;;;6.47;1.80;;;;;;;13.58;42.41;100448.78;5111700;27;20051;-68
2022/01/05 08:11:17;;;;;;;13.47;2.10;;;;;;;13.24;41.83;100448.84;5114038;27;20491;-69
2022/01/05 08:13:43;;;;;;;9.00;1.63;;;;;;;13.03;42.52;100453.75;5123276;27;20080;-68
2022/01/05 08:16:09;;;;;;;10.10;2.00;;;;;;;12.77;43.66;100456.19;5111013;28;20114;-68
2022/01/05 08:18:34;;;;;;;8.60;1.53;;;;;;;12.73;44.23;100460.66;5124886;27;20043;-68
2022/01/05 08:21:00;;;;;;;8.00;1.57;;;;;;;12.90;44.15;100457.63;5113905;27;20100;-68
2022/01/05 08:23:26;;;;;;;14.97;1.90;;;;;;;13.23;43.81;100476.00;5124408;27;20023;-68
2022/01/05 08:25:52;;;;;;;7.87;1.33;;;;;;;12.85;44.67;100464.75;5131803;27;20027;-68
2022/01/05 08:28:19;;;;;;;8.00;1.30;;;;;;;12.13;46.41;100480.41;5113686;27;20027;-68
2022/01/05 08:30:45;;;;;;;13.27;2.97;;;;;;;11.61;47.68;100472.72;5113265;27;20394;-68
2022/01/05 08:33:15;;;;;;;13.77;1.80;;;;;;;13.61;44.65;100475.88;5104930;28;20497;-68
2022/01/05 08:35:42;;;;;;;12.60;1.90;;;;;;;12.99;45.54;100472.25;5112842;27;20023;-68
2022/01/05 08:38:08;;;;;;;16.43;2.07;;;;;;;12.33;46.88;100488.66;5130247;27;20458;-68
2022/01/05 08:40:35;;;;;;;11.20;2.00;;;;;;;12.10;47.96;100481.31;5105930;27;20032;-68
2022/01/05 08:43:04;;;;;;;18.70;2.17;;;;;;;12.19;47.74;100494.22;5095157;27;20070;-68
2022/01/05 08:45:29;;;;;;;15.60;1.53;;;;;;;13.05;45.48;100491.31;5131255;27;20431;-68
2022/01/05 08:47:56;;;;;;;13.87;1.60;;;;;;;12.82;47.83;100501.53;5113124;27;20113;-68
2022/01/05 08:50:28;;;;;;;6.93;1.73;;;;;;;12.51;47.46;100497.00;5127044;27;20118;-68
2022/01/05 08:52:54;;;;;;;12.60;3.40;;;;;;;12.52;47.65;100509.22;5115611;27;20027;-68
2022/01/05 08:55:22;;;;;;;15.80;2.83;;;;;;;12.88;46.86;100502.22;5111196;27;20042;-68
2022/01/05 08:57:48;;;;;;;25.90;2.90;;;;;;;11.83;48.87;100508.94;5128494;27;20085;-68
2022/01/05 09:00:15;;;;;;;8.83;1.77;;;;;;;12.83;47.58;100503.25;5108673;28;20110;-68
2022/01/05 09:02:40;;;;;;;12.67;2.10;;;;;;;12.61;48.02;100516.88;5111985;27;20019;-68
2022/01/05 09:05:07;;;;;;;8.57;1.27;;;;;;;12.98;47.08;100512.50;5129842;27;20450;-68
2022/01/05 09:07:33;;;;;;;12.00;1.67;;;;;;;12.95;46.85;100518.69;5130853;27;20104;-69
2022/01/05 09:09:58;;;;;;;4.17;1.50;;;;;;;12.18;48.60;100517.84;5116263;27;20039;-68
2022/01/05 09:12:24;;;;;;;6.87;2.20;;;;;;;12.28;48.21;100522.00;5111550;27;20104;-68
2022/01/05 09:14:49;;;;;;;16.60;2.17;;;;;;;12.52;47.27;100522.34;5111239;27;20027;-68
2022/01/05 09:17:16;;;;;;;13.43;1.73;;;;;;;12.60;49.15;100533.50;5101308;28;20023;-68
2022/01/05 09:19:42;;;;;;;9.40;1.53;;;;;;;13.23;46.39;100518.00;5129819;27;20109;-68
2022/01/05 09:22:08;;;;;;;18.00;1.97;;;;;;;12.68;48.41;100542.06;5121581;28;20038;-69
2022/01/05 09:24:36;;;;;;;14.90;2.53;;;;;;;13.40;46.74;100542.06;5126980;28;20039;-68
2022/01/05 09:27:04;;;;;;;26.57;1.97;;;;;;;13.22;47.60;100545.13;5122624;28;20023;-68
2022/01/05 09:29:30;;;;;;;14.63;1.57;;;;;;;13.34;47.30;100541.31;5128898;28;20550;-68
2022/01/05 09:31:55;;;;;;;11.37;2.80;;;;;;;11.82;50.11;100549.13;5121739;28;20098;-68
2022/01/05 09:34:21;;;;;;;11.87;1.77;;;;;;;13.44;46.54;100548.09;5110179;28;20402;-68
2022/01/05 09:36:51;;;;;;;10.33;2.27;;;;;;;12.68;48.27;100557.81;5112899;28;20027;-68
2022/01/05 09:42:01;;;;;;;19.43;2.73;;;;;;;11.68;50.81;100552.84;5126838;28;20054;-68
2022/01/05 09:44:31;;;;;;;16.57;1.47;;;;;;;13.23;47.49;100554.75;5112530;28;20023;-68
2022/01/05 09:47:13;;;;;;;21.73;1.70;;;;;;;13.43;45.93;100545.50;5130253;28;20023;-69
2022/01/05 09:49:48;;;;;;;13.88;2.13;;;;;;;13.32;46.26;100562.34;5106657;28;20592;-68
2022/01/05 09:52:13;;;;;;;15.93;2.20;;;;;;;13.29;46.83;100561.59;5110703;28;20035;-68
2022/01/05 09:54:43;;;;;;;17.63;1.83;;;;;;;13.52;47.58;100566.28;5125119;28;20041;-68
2022/01/05 09:57:13;;;;;;;8.20;1.50;;;;;;;12.88;48.27;100575.66;5103469;28;20125;-68
2022/01/05 09:59:39;;;;;;;20.80;2.03;;;;;;;13.57;47.32;100582.75;5110763;28;20051;-68
2022/01/05 10:02:06;;;;;;;11.53;1.60;;;;;;;13.20;47.96;100596.78;5101937;27;20027;-68
2022/01/05 10:04:32;;;;;;;8.83;2.17;;;;;;;12.57;50.78;100593.91;5119883;27;20478;-68
2022/01/05 10:06:57;;;;;;;10.63;1.83;;;;;;;13.41;47.84;100598.06;5115953;27;20109;-68
2022/01/05 10:09:23;;;;;;;16.10;2.13;;;;;;;12.97;49.00;100598.22;5115635;27;20386;-68
2022/01/05 10:11:49;;;;;;;11.33;1.83;;;;;;;14.18;47.30;100593.34;5101233;27;20061;-68
2022/01/05 10:14:16;;;;;;;24.23;3.43;;;;;;;13.53;48.17;100599.50;5115548;27;20027;-68
2022/01/05 10:16:58;;;;;;;20.20;2.67;;;;;;;12.94;49.39;100606.16;5114904;27;20493;-68
2022/01/05 10:19:24;;;;;;;10.38;1.30;;;;;;;13.65;47.79;100609.69;5109382;27;20441;-68
2022/01/05 10:21:50;;;;;;;13.97;2.03;;;;;;;13.47;48.31;100610.16;5115676;27;20072;-69
2022/01/05 10:24:16;;;;;;;16.87;3.03;;;;;;;13.95;46.50;100617.66;5133058;27;20031;-68
2022/01/05 10:26:41;;;;;;;13.67;1.97;;;;;;;12.80;49.02;100630.06;5115497;27;20504;-68
2022/01/05 10:29:15;;;;;;;10.70;1.90;;;;;;;13.83;47.66;100607.47;5115269;27;20027;-68
2022/01/05 10:31:42;;;;;;;9.20;1.87;;;;;;;13.78;48.12;100626.00;5115350;27;20463;-68
2022/01/05 10:34:21;;;;;;;19.13;2.73;;;;;;;13.77;48.14;100640.03;5100582;28;20122;-68
2022/01/05 10:36:51;;;;;;;11.53;2.20;;;;;;;13.04;48.94;100662.75;5099151;27;20053;-68
2022/01/05 10:39:31;;;;;;;12.70;2.07;;;;;;;12.61;50.39;100662.84;5113614;28;20395;-69
2022/01/05 10:42:07;;;;;;;12.10;1.90;;;;;;;13.17;49.03;100659.84;5119056;27;20416;-68
2022/01/05 10:44:33;;;;;;;15.70;2.43;;;;;;;13.39;48.98;100661.13;5115293;27;20080;-68
2022/01/05 10:47:00;;;;;;;8.23;1.40;;;;;;;12.91;48.48;100669.19;5133363;27;20023;-68
2022/01/05 10:49:27;;;;;;;15.73;3.20;;;;;;;14.00;47.90;100678.81;5114617;27;20023;-68
2022/01/05 10:51:54;;;;;;;20.80;1.80;;;;;;;13.34;48.67;100672.56;5113268;27;20066;-68
2022/01/05 10:54:23;;;;;;;7.90;1.60;;;;;;;12.64;50.41;100670.63;5114827;27;20072;-68
2022/01/05 10:56:49;;;;;;;17.57;2.73;;;;;;;13.48;48.06;100669.66;5133056;27;20035;-69
2022/01/05 10:59:25;;;;;;;9.67;1.83;;;;;;;13.46;48.29;100664.41;5130420;27;20017;-68
2022/01/05 11:01:51;;;;;;;24.30;3.40;;;;;;;13.61;47.84;100671.06;5109840;27;20106;-68
2022/01/05 11:04:21;;;;;;;15.07;3.67;;;;;;;12.56;50.41;100681.31;5115331;27;20031;-68
2022/01/05 11:07:23;;;;;;;10.53;1.30;;;;;;;13.48;49.37;100680.16;5112151;27;20023;-68
2022/01/05 11:10:00;;;;;;;9.93;1.10;;;;;;;12.99;49.54;100682.13;5095902;27;20031;-69
2022/01/05 11:12:33;;;;;;;10.07;2.30;;;;;;;13.96;47.39;100682.44;5114320;27;20092;-69
2022/01/05 11:15:30;;;;;;;14.30;2.22;;;;;;;13.71;49.15;100683.06;5132679;27;20035;-68
2022/01/05 11:18:18;;;;;;;11.33;1.73;;;;;;;14.70;45.95;100677.78;5099642;27;20031;-68
2022/01/05 11:21:01;;;;;;;12.43;1.97;;;;;;;14.27;47.88;100671.06;5109060;27;20130;-68